sensor_id;sensor_type;location;lat;lon;timestamp;temperature;humidity
17571;DHT22;8903;52.220;20.978;2024-01-10T00:01:59;-7.40;99.90
17571;DHT22;8903;52.220;20.978;2024-01-10T00:04:25;-7.40;99.90
17571;DHT22;8903;52.220;20.978;2024-01-10T00:06:51;-7.30;99.90
17571;DHT22;8903;52.220;20.978;2024-01-10T00:09:16;-7.30;99.90
17571;DHT22;8903;52.220;20.978;2024-01-10T00:11:42;-7.30;99.90
17571;DHT22;8903;52.220;20.978;2024-01-10T00:14:08;-7.30;99.90
17571;DHT22;8903;52.220;20.978;2024-01-10T00:16:35;-7.30;99.90
17571;DHT22;8903;52.220;20.978;2024-01-10T00:19:00;-7.30;99.90
17571;DHT22;8903;52.220;20.978;2024-01-10T00:21:26;-7.30;99.90
17571;DHT22;8903;52.220;20.978;2024-01-10T00:23:52;-7.20;99.90
17571;DHT22;8903;52.220;20.978;2024-01-10T00:26:18;-7.20;99.90
17571;DHT22;8903;52.220;20.978;2024-01-10T00:28:43;-7.20;99.90
17571;DHT22;8903;52.220;20.978;2024-01-10T00:31:12;-7.10;99.90
17571;DHT22;8903;52.220;20.978;2024-01-10T00:33:38;-7.10;99.90
17571;DHT22;8903;52.220;20.978;2024-01-10T00:36:04;-7.10;99.90
17571;DHT22;8903;52.220;20.978;2024-01-10T00:38:30;-7.00;99.90
17571;DHT22;8903;52.220;20.978;2024-01-10T00:40:55;-7.00;99.90
17571;DHT22;8903;52.220;20.978;2024-01-10T00:43:22;-7.00;99.90
17571;DHT22;8903;52.220;20.978;2024-01-10T00:45:47;-6.90;99.90
17571;DHT22;8903;52.220;20.978;2024-01-10T00:48:13;-6.90;99.90
17571;DHT22;8903;52.220;20.978;2024-01-10T00:50:39;-6.90;99.90
17571;DHT22;8903;52.220;20.978;2024-01-10T00:53:04;-6.90;99.90
17571;DHT22;8903;52.220;20.978;2024-01-10T00:55:30;-6.80;99.90
17571;DHT22;8903;52.220;20.978;2024-01-10T00:57:56;-6.80;99.90
17571;DHT22;8903;52.220;20.978;2024-01-10T01:00:21;-6.80;99.90
17571;DHT22;8903;52.220;20.978;2024-01-10T01:02:47;-6.80;99.90
17571;DHT22;8903;52.220;20.978;2024-01-10T01:05:13;-6.80;99.90
17571;DHT22;8903;52.220;20.978;2024-01-10T01:07:39;-6.80;99.90
17571;DHT22;8903;52.220;20.978;2024-01-10T01:10:05;-6.80;99.90
17571;DHT22;8903;52.220;20.978;2024-01-10T01:12:31;-6.90;99.90
17571;DHT22;8903;52.220;20.978;2024-01-10T01:14:57;-6.90;99.90
17571;DHT22;8903;52.220;20.978;2024-01-10T01:17:23;-6.90;99.90
17571;DHT22;8903;52.220;20.978;2024-01-10T01:19:48;-6.90;99.90
17571;DHT22;8903;52.220;20.978;2024-01-10T01:22:14;-6.90;99.90
17571;DHT22;8903;52.220;20.978;2024-01-10T01:24:40;-6.90;99.90
17571;DHT22;8903;52.220;20.978;2024-01-10T01:27:05;-7.00;99.90
17571;DHT22;8903;52.220;20.978;2024-01-10T01:29:31;-7.00;99.90
17571;DHT22;8903;52.220;20.978;2024-01-10T01:31:56;-7.00;99.90
17571;DHT22;8903;52.220;20.978;2024-01-10T01:34:22;-7.00;99.90
17571;DHT22;8903;52.220;20.978;2024-01-10T01:36:48;-7.10;99.90
17571;DHT22;8903;52.220;20.978;2024-01-10T01:39:14;-7.10;99.90
17571;DHT22;8903;52.220;20.978;2024-01-10T01:41:40;-7.10;99.90
17571;DHT22;8903;52.220;20.978;2024-01-10T01:44:06;-7.20;99.90
17571;DHT22;8903;52.220;20.978;2024-01-10T01:46:32;-7.20;99.90
17571;DHT22;8903;52.220;20.978;2024-01-10T01:48:59;-7.20;99.90
17571;DHT22;8903;52.220;20.978;2024-01-10T01:51:26;-7.20;99.90
17571;DHT22;8903;52.220;20.978;2024-01-10T01:53:53;-7.30;99.90
17571;DHT22;8903;52.220;20.978;2024-01-10T01:56:19;-7.30;99.90
17571;DHT22;8903;52.220;20.978;2024-01-10T01:58:46;-7.30;99.90
17571;DHT22;8903;52.220;20.978;2024-01-10T02:01:12;-7.30;99.90
17571;DHT22;8903;52.220;20.978;2024-01-10T02:03:39;-7.30;99.90
17571;DHT22;8903;52.220;20.978;2024-01-10T02:06:04;-7.30;99.90
17571;DHT22;8903;52.220;20.978;2024-01-10T02:08:32;-7.30;99.90
17571;DHT22;8903;52.220;20.978;2024-01-10T02:10:59;-7.30;99.90
17571;DHT22;8903;52.220;20.978;2024-01-10T02:13:24;-7.30;99.90
17571;DHT22;8903;52.220;20.978;2024-01-10T02:15:51;-7.30;99.90
17571;DHT22;8903;52.220;20.978;2024-01-10T02:18:17;-7.30;99.90
17571;DHT22;8903;52.220;20.978;2024-01-10T02:20:44;-7.30;99.90
17571;DHT22;8903;52.220;20.978;2024-01-10T02:23:10;-7.30;99.90
17571;DHT22;8903;52.220;20.978;2024-01-10T02:25:36;-7.40;99.90
17571;DHT22;8903;52.220;20.978;2024-01-10T02:28:02;-7.40;99.90
17571;DHT22;8903;52.220;20.978;2024-01-10T02:30:29;-7.40;99.90
17571;DHT22;8903;52.220;20.978;2024-01-10T02:32:54;-7.40;99.90
17571;DHT22;8903;52.220;20.978;2024-01-10T02:35:20;-7.30;99.90
17571;DHT22;8903;52.220;20.978;2024-01-10T02:37:46;-7.40;99.90
17571;DHT22;8903;52.220;20.978;2024-01-10T02:40:12;-7.40;99.90
17571;DHT22;8903;52.220;20.978;2024-01-10T02:42:39;-7.40;99.90
17571;DHT22;8903;52.220;20.978;2024-01-10T02:45:05;-7.40;99.90
17571;DHT22;8903;52.220;20.978;2024-01-10T02:47:31;-7.30;99.90
17571;DHT22;8903;52.220;20.978;2024-01-10T02:49:56;-7.40;99.90
17571;DHT22;8903;52.220;20.978;2024-01-10T02:52:22;-7.30;99.90
17571;DHT22;8903;52.220;20.978;2024-01-10T02:54:48;-7.30;99.90
17571;DHT22;8903;52.220;20.978;2024-01-10T02:57:13;-7.30;99.90
17571;DHT22;8903;52.220;20.978;2024-01-10T02:59:39;-7.30;99.90
17571;DHT22;8903;52.220;20.978;2024-01-10T03:02:05;-7.30;99.90
17571;DHT22;8903;52.220;20.978;2024-01-10T03:04:30;-7.30;99.90
17571;DHT22;8903;52.220;20.978;2024-01-10T03:06:56;-7.30;99.90
17571;DHT22;8903;52.220;20.978;2024-01-10T03:09:23;-7.30;99.90
17571;DHT22;8903;52.220;20.978;2024-01-10T03:11:48;-7.30;99.90
17571;DHT22;8903;52.220;20.978;2024-01-10T03:14:14;-7.30;99.90
17571;DHT22;8903;52.220;20.978;2024-01-10T03:16:40;-7.30;99.90
17571;DHT22;8903;52.220;20.978;2024-01-10T03:19:06;-7.30;99.90
17571;DHT22;8903;52.220;20.978;2024-01-10T03:21:32;-7.40;99.90
17571;DHT22;8903;52.220;20.978;2024-01-10T03:23:58;-7.40;99.90
17571;DHT22;8903;52.220;20.978;2024-01-10T03:26:25;-7.40;99.90
17571;DHT22;8903;52.220;20.978;2024-01-10T03:28:51;-7.40;99.90
17571;DHT22;8903;52.220;20.978;2024-01-10T03:31:17;-7.40;99.90
17571;DHT22;8903;52.220;20.978;2024-01-10T03:33:43;-7.40;99.90
17571;DHT22;8903;52.220;20.978;2024-01-10T03:36:11;-7.50;99.90
17571;DHT22;8903;52.220;20.978;2024-01-10T03:38:37;-7.50;99.90
17571;DHT22;8903;52.220;20.978;2024-01-10T03:41:03;-7.50;99.90
17571;DHT22;8903;52.220;20.978;2024-01-10T03:43:29;-7.50;99.90
17571;DHT22;8903;52.220;20.978;2024-01-10T03:45:54;-7.60;99.90
17571;DHT22;8903;52.220;20.978;2024-01-10T03:48:20;-7.60;99.90
17571;DHT22;8903;52.220;20.978;2024-01-10T03:50:46;-7.60;99.90
17571;DHT22;8903;52.220;20.978;2024-01-10T03:53:12;-7.60;99.90
17571;DHT22;8903;52.220;20.978;2024-01-10T03:55:37;-7.60;99.90
17571;DHT22;8903;52.220;20.978;2024-01-10T03:58:04;-7.60;99.90
17571;DHT22;8903;52.220;20.978;2024-01-10T04:00:30;-7.60;99.90
17571;DHT22;8903;52.220;20.978;2024-01-10T04:02:56;-7.60;99.90
17571;DHT22;8903;52.220;20.978;2024-01-10T04:05:22;-7.60;99.90
17571;DHT22;8903;52.220;20.978;2024-01-10T04:07:50;-7.60;99.90
17571;DHT22;8903;52.220;20.978;2024-01-10T04:10:16;-7.70;99.90
17571;DHT22;8903;52.220;20.978;2024-01-10T04:12:42;-7.60;99.90
17571;DHT22;8903;52.220;20.978;2024-01-10T04:15:08;-7.70;99.90
17571;DHT22;8903;52.220;20.978;2024-01-10T04:17:34;-7.60;99.90
17571;DHT22;8903;52.220;20.978;2024-01-10T04:20:00;-7.60;99.90
17571;DHT22;8903;52.220;20.978;2024-01-10T04:22:26;-7.70;99.90
17571;DHT22;8903;52.220;20.978;2024-01-10T04:24:52;-7.60;99.90
17571;DHT22;8903;52.220;20.978;2024-01-10T04:27:18;-7.60;99.90
17571;DHT22;8903;52.220;20.978;2024-01-10T04:29:44;-7.60;99.90
17571;DHT22;8903;52.220;20.978;2024-01-10T04:32:10;-7.60;99.90
17571;DHT22;8903;52.220;20.978;2024-01-10T04:34:36;-7.70;99.90
17571;DHT22;8903;52.220;20.978;2024-01-10T04:37:02;-7.70;99.90
17571;DHT22;8903;52.220;20.978;2024-01-10T04:39:27;-7.60;99.90
17571;DHT22;8903;52.220;20.978;2024-01-10T04:41:53;-7.70;99.90
17571;DHT22;8903;52.220;20.978;2024-01-10T04:44:19;-7.60;99.90
17571;DHT22;8903;52.220;20.978;2024-01-10T04:46:45;-7.70;99.90
17571;DHT22;8903;52.220;20.978;2024-01-10T04:49:11;-7.70;99.90
17571;DHT22;8903;52.220;20.978;2024-01-10T04:51:37;-7.70;99.90
17571;DHT22;8903;52.220;20.978;2024-01-10T04:54:03;-7.70;99.90
17571;DHT22;8903;52.220;20.978;2024-01-10T04:56:29;-7.70;99.90
17571;DHT22;8903;52.220;20.978;2024-01-10T04:58:54;-7.70;99.90
17571;DHT22;8903;52.220;20.978;2024-01-10T05:01:20;-7.70;99.90
17571;DHT22;8903;52.220;20.978;2024-01-10T05:03:46;-7.80;99.90
17571;DHT22;8903;52.220;20.978;2024-01-10T05:06:12;-7.80;99.90
17571;DHT22;8903;52.220;20.978;2024-01-10T05:08:37;-7.80;99.90
17571;DHT22;8903;52.220;20.978;2024-01-10T05:11:03;-7.80;99.90
17571;DHT22;8903;52.220;20.978;2024-01-10T05:13:29;-7.80;99.90
17571;DHT22;8903;52.220;20.978;2024-01-10T05:15:55;-7.80;99.90
17571;DHT22;8903;52.220;20.978;2024-01-10T05:18:21;-7.80;99.90
17571;DHT22;8903;52.220;20.978;2024-01-10T05:20:47;-7.80;99.90
17571;DHT22;8903;52.220;20.978;2024-01-10T05:23:13;-7.80;99.90
17571;DHT22;8903;52.220;20.978;2024-01-10T05:25:39;-7.80;99.90
17571;DHT22;8903;52.220;20.978;2024-01-10T05:28:05;-7.80;99.90
17571;DHT22;8903;52.220;20.978;2024-01-10T05:30:32;-7.80;99.90
17571;DHT22;8903;52.220;20.978;2024-01-10T05:32:58;-7.80;99.90
17571;DHT22;8903;52.220;20.978;2024-01-10T05:35:26;-7.80;99.90
17571;DHT22;8903;52.220;20.978;2024-01-10T05:37:52;-7.80;99.90
17571;DHT22;8903;52.220;20.978;2024-01-10T05:40:18;-7.90;99.90
17571;DHT22;8903;52.220;20.978;2024-01-10T05:42:44;-7.90;99.90
17571;DHT22;8903;52.220;20.978;2024-01-10T05:45:11;-7.90;99.90
17571;DHT22;8903;52.220;20.978;2024-01-10T05:47:37;-7.90;99.90
17571;DHT22;8903;52.220;20.978;2024-01-10T05:50:03;-7.90;99.90
17571;DHT22;8903;52.220;20.978;2024-01-10T05:52:32;-7.90;99.90
17571;DHT22;8903;52.220;20.978;2024-01-10T05:54:59;-7.90;99.90
17571;DHT22;8903;52.220;20.978;2024-01-10T05:57:27;-7.90;99.90
17571;DHT22;8903;52.220;20.978;2024-01-10T05:59:53;-7.90;99.90
17571;DHT22;8903;52.220;20.978;2024-01-10T06:02:23;-7.90;99.90
17571;DHT22;8903;52.220;20.978;2024-01-10T06:04:50;-7.90;99.90
17571;DHT22;8903;52.220;20.978;2024-01-10T06:07:16;-7.90;99.90
17571;DHT22;8903;52.220;20.978;2024-01-10T06:09:41;-7.90;99.90
17571;DHT22;8903;52.220;20.978;2024-01-10T06:12:09;-7.90;99.90
17571;DHT22;8903;52.220;20.978;2024-01-10T06:14:35;-7.90;99.90
17571;DHT22;8903;52.220;20.978;2024-01-10T06:17:01;-7.90;99.90
17571;DHT22;8903;52.220;20.978;2024-01-10T06:19:30;-7.90;99.90
17571;DHT22;8903;52.220;20.978;2024-01-10T06:21:57;-7.90;99.90
17571;DHT22;8903;52.220;20.978;2024-01-10T06:24:22;-7.90;99.90
17571;DHT22;8903;52.220;20.978;2024-01-10T06:26:48;-7.90;99.90
17571;DHT22;8903;52.220;20.978;2024-01-10T06:29:15;-7.90;99.90
17571;DHT22;8903;52.220;20.978;2024-01-10T06:31:41;-7.90;99.90
17571;DHT22;8903;52.220;20.978;2024-01-10T06:34:08;-8.00;99.90
17571;DHT22;8903;52.220;20.978;2024-01-10T06:36:35;-8.00;99.90
17571;DHT22;8903;52.220;20.978;2024-01-10T06:39:00;-8.00;99.90
17571;DHT22;8903;52.220;20.978;2024-01-10T06:41:26;-7.90;99.90
17571;DHT22;8903;52.220;20.978;2024-01-10T06:43:53;-7.90;99.90
17571;DHT22;8903;52.220;20.978;2024-01-10T06:46:19;-7.90;99.90
17571;DHT22;8903;52.220;20.978;2024-01-10T06:48:46;-7.90;99.90
17571;DHT22;8903;52.220;20.978;2024-01-10T06:51:15;-8.00;99.90
17571;DHT22;8903;52.220;20.978;2024-01-10T06:53:41;-8.00;99.90
17571;DHT22;8903;52.220;20.978;2024-01-10T06:56:07;-7.90;99.90
17571;DHT22;8903;52.220;20.978;2024-01-10T06:58:33;-8.00;99.90
17571;DHT22;8903;52.220;20.978;2024-01-10T07:00:59;-8.00;99.90
17571;DHT22;8903;52.220;20.978;2024-01-10T07:03:31;-8.00;99.90
17571;DHT22;8903;52.220;20.978;2024-01-10T07:05:56;-8.00;99.90
17571;DHT22;8903;52.220;20.978;2024-01-10T07:08:22;-8.00;99.90
17571;DHT22;8903;52.220;20.978;2024-01-10T07:10:48;-7.90;99.90
17571;DHT22;8903;52.220;20.978;2024-01-10T07:13:14;-7.90;99.90
17571;DHT22;8903;52.220;20.978;2024-01-10T07:15:39;-7.90;99.90
17571;DHT22;8903;52.220;20.978;2024-01-10T07:18:05;-7.90;99.90
17571;DHT22;8903;52.220;20.978;2024-01-10T07:20:32;-7.80;99.90
17571;DHT22;8903;52.220;20.978;2024-01-10T07:22:58;-7.80;99.90
17571;DHT22;8903;52.220;20.978;2024-01-10T07:25:24;-7.70;99.90
17571;DHT22;8903;52.220;20.978;2024-01-10T07:27:51;-7.80;99.90
17571;DHT22;8903;52.220;20.978;2024-01-10T07:30:17;-7.70;99.90
17571;DHT22;8903;52.220;20.978;2024-01-10T07:32:44;-7.80;99.90
17571;DHT22;8903;52.220;20.978;2024-01-10T07:35:11;-7.80;99.90
17571;DHT22;8903;52.220;20.978;2024-01-10T07:37:37;-7.80;99.90
17571;DHT22;8903;52.220;20.978;2024-01-10T07:40:04;-7.80;99.90
17571;DHT22;8903;52.220;20.978;2024-01-10T07:42:34;-7.70;99.90
17571;DHT22;8903;52.220;20.978;2024-01-10T07:45:01;-7.70;99.90
17571;DHT22;8903;52.220;20.978;2024-01-10T07:47:34;-7.70;99.90
17571;DHT22;8903;52.220;20.978;2024-01-10T07:50:07;-7.70;99.90
17571;DHT22;8903;52.220;20.978;2024-01-10T07:52:33;-7.60;99.90
17571;DHT22;8903;52.220;20.978;2024-01-10T07:54:59;-7.60;99.90
17571;DHT22;8903;52.220;20.978;2024-01-10T07:57:26;-7.50;99.90
17571;DHT22;8903;52.220;20.978;2024-01-10T07:59:53;-7.50;99.90
17571;DHT22;8903;52.220;20.978;2024-01-10T08:02:18;-7.50;99.90
17571;DHT22;8903;52.220;20.978;2024-01-10T08:04:44;-7.40;99.90
17571;DHT22;8903;52.220;20.978;2024-01-10T08:07:10;-7.40;99.90
17571;DHT22;8903;52.220;20.978;2024-01-10T08:09:38;-7.40;99.90
17571;DHT22;8903;52.220;20.978;2024-01-10T08:12:04;-7.40;99.90
17571;DHT22;8903;52.220;20.978;2024-01-10T08:14:30;-7.40;99.90
17571;DHT22;8903;52.220;20.978;2024-01-10T08:16:55;-7.40;99.90
17571;DHT22;8903;52.220;20.978;2024-01-10T08:19:24;-7.40;99.90
17571;DHT22;8903;52.220;20.978;2024-01-10T08:21:55;-7.30;99.90
17571;DHT22;8903;52.220;20.978;2024-01-10T08:24:21;-7.30;99.90
17571;DHT22;8903;52.220;20.978;2024-01-10T08:26:47;-7.20;99.90
17571;DHT22;8903;52.220;20.978;2024-01-10T08:29:20;-7.20;99.90
17571;DHT22;8903;52.220;20.978;2024-01-10T08:31:47;-7.10;99.90
17571;DHT22;8903;52.220;20.978;2024-01-10T08:34:13;-7.20;99.90
17571;DHT22;8903;52.220;20.978;2024-01-10T08:36:39;-7.10;99.90
17571;DHT22;8903;52.220;20.978;2024-01-10T08:39:05;-7.00;99.90
17571;DHT22;8903;52.220;20.978;2024-01-10T08:41:32;-7.00;99.90
17571;DHT22;8903;52.220;20.978;2024-01-10T08:43:59;-7.00;99.90
17571;DHT22;8903;52.220;20.978;2024-01-10T08:46:25;-7.00;99.90
17571;DHT22;8903;52.220;20.978;2024-01-10T08:48:51;-6.90;99.90
17571;DHT22;8903;52.220;20.978;2024-01-10T08:51:16;-6.80;99.90
17571;DHT22;8903;52.220;20.978;2024-01-10T08:53:43;-6.80;99.90
17571;DHT22;8903;52.220;20.978;2024-01-10T08:56:09;-6.70;99.90
17571;DHT22;8903;52.220;20.978;2024-01-10T08:58:36;-6.70;99.90
17571;DHT22;8903;52.220;20.978;2024-01-10T09:01:02;-6.60;99.90
17571;DHT22;8903;52.220;20.978;2024-01-10T09:03:30;-6.60;99.90
17571;DHT22;8903;52.220;20.978;2024-01-10T09:05:56;-6.60;99.90
17571;DHT22;8903;52.220;20.978;2024-01-10T09:08:22;-6.60;99.90
17571;DHT22;8903;52.220;20.978;2024-01-10T09:10:48;-6.60;99.90
17571;DHT22;8903;52.220;20.978;2024-01-10T09:13:17;-6.60;99.90
17571;DHT22;8903;52.220;20.978;2024-01-10T09:15:43;-6.60;99.90
17571;DHT22;8903;52.220;20.978;2024-01-10T09:18:08;-6.50;99.90
17571;DHT22;8903;52.220;20.978;2024-01-10T09:20:34;-6.50;99.90
17571;DHT22;8903;52.220;20.978;2024-01-10T09:23:01;-6.50;99.90
17571;DHT22;8903;52.220;20.978;2024-01-10T09:25:28;-6.50;99.90
17571;DHT22;8903;52.220;20.978;2024-01-10T09:27:53;-6.50;99.90
17571;DHT22;8903;52.220;20.978;2024-01-10T09:30:20;-6.50;99.90
17571;DHT22;8903;52.220;20.978;2024-01-10T09:32:46;-6.40;99.90
17571;DHT22;8903;52.220;20.978;2024-01-10T09:35:12;-6.40;99.90
17571;DHT22;8903;52.220;20.978;2024-01-10T09:37:38;-6.40;99.90
17571;DHT22;8903;52.220;20.978;2024-01-10T09:40:05;-6.40;99.90
17571;DHT22;8903;52.220;20.978;2024-01-10T09:42:35;-6.40;99.90
17571;DHT22;8903;52.220;20.978;2024-01-10T09:45:04;-6.30;99.90
17571;DHT22;8903;52.220;20.978;2024-01-10T09:47:31;-6.30;99.90
17571;DHT22;8903;52.220;20.978;2024-01-10T09:49:58;-6.20;99.90
17571;DHT22;8903;52.220;20.978;2024-01-10T09:52:27;-6.10;99.90
17571;DHT22;8903;52.220;20.978;2024-01-10T09:54:55;-6.00;99.90
17571;DHT22;8903;52.220;20.978;2024-01-10T09:57:24;-5.90;99.90
17571;DHT22;8903;52.220;20.978;2024-01-10T09:59:54;-5.80;99.90
17571;DHT22;8903;52.220;20.978;2024-01-10T10:02:20;-5.70;99.90
17571;DHT22;8903;52.220;20.978;2024-01-10T10:05:03;-5.70;99.90
17571;DHT22;8903;52.220;20.978;2024-01-10T10:07:32;-5.70;99.90
17571;DHT22;8903;52.220;20.978;2024-01-10T10:10:08;-5.80;99.90
17571;DHT22;8903;52.220;20.978;2024-01-10T10:12:44;-5.80;99.90
17571;DHT22;8903;52.220;20.978;2024-01-10T10:15:11;-5.80;99.90
17571;DHT22;8903;52.220;20.978;2024-01-10T10:17:37;-5.70;99.90
17571;DHT22;8903;52.220;20.978;2024-01-10T10:20:10;-5.60;99.90
17571;DHT22;8903;52.220;20.978;2024-01-10T10:22:36;-5.60;99.90
17571;DHT22;8903;52.220;20.978;2024-01-10T10:25:04;-5.60;99.90
17571;DHT22;8903;52.220;20.978;2024-01-10T10:27:29;-5.50;99.90
17571;DHT22;8903;52.220;20.978;2024-01-10T10:29:55;-5.40;99.90
17571;DHT22;8903;52.220;20.978;2024-01-10T10:32:21;-5.30;99.90
17571;DHT22;8903;52.220;20.978;2024-01-10T10:34:48;-5.20;99.90
17571;DHT22;8903;52.220;20.978;2024-01-10T10:37:14;-5.10;99.90
17571;DHT22;8903;52.220;20.978;2024-01-10T10:39:40;-5.00;99.90
17571;DHT22;8903;52.220;20.978;2024-01-10T10:42:07;-4.90;99.90
17571;DHT22;8903;52.220;20.978;2024-01-10T10:44:36;-4.90;99.90
17571;DHT22;8903;52.220;20.978;2024-01-10T10:47:09;-4.80;99.90
17571;DHT22;8903;52.220;20.978;2024-01-10T10:49:44;-4.70;99.90
17571;DHT22;8903;52.220;20.978;2024-01-10T10:52:12;-4.70;99.90
17571;DHT22;8903;52.220;20.978;2024-01-10T10:54:39;-4.70;99.90
17571;DHT22;8903;52.220;20.978;2024-01-10T10:57:05;-4.60;99.90
17571;DHT22;8903;52.220;20.978;2024-01-10T10:59:32;-4.60;99.90
17571;DHT22;8903;52.220;20.978;2024-01-10T11:01:59;-4.60;99.90
17571;DHT22;8903;52.220;20.978;2024-01-10T11:04:25;-4.50;99.90
17571;DHT22;8903;52.220;20.978;2024-01-10T11:06:51;-4.50;99.90
17571;DHT22;8903;52.220;20.978;2024-01-10T11:09:18;-4.40;99.90
17571;DHT22;8903;52.220;20.978;2024-01-10T11:12:07;-4.30;99.90
17571;DHT22;8903;52.220;20.978;2024-01-10T11:25:35;-4.30;99.90
17571;DHT22;8903;52.220;20.978;2024-01-10T11:28:03;-4.20;99.90
17571;DHT22;8903;52.220;20.978;2024-01-10T11:30:36;-4.20;99.90
17571;DHT22;8903;52.220;20.978;2024-01-10T11:33:26;-4.10;99.90
17571;DHT22;8903;52.220;20.978;2024-01-10T11:36:17;-4.10;99.90
17571;DHT22;8903;52.220;20.978;2024-01-10T11:38:54;-4.00;99.90
17571;DHT22;8903;52.220;20.978;2024-01-10T11:46:40;-4.00;99.90
17571;DHT22;8903;52.220;20.978;2024-01-10T11:49:16;-4.00;99.90
17571;DHT22;8903;52.220;20.978;2024-01-10T11:51:46;-3.90;99.90
17571;DHT22;8903;52.220;20.978;2024-01-10T11:54:12;-3.80;99.90
17571;DHT22;8903;52.220;20.978;2024-01-10T11:56:39;-3.70;99.90
17571;DHT22;8903;52.220;20.978;2024-01-10T11:59:10;-3.70;99.90
17571;DHT22;8903;52.220;20.978;2024-01-10T12:01:37;-3.70;99.90
17571;DHT22;8903;52.220;20.978;2024-01-10T12:04:04;-3.60;99.90
17571;DHT22;8903;52.220;20.978;2024-01-10T12:06:37;-3.60;99.90
17571;DHT22;8903;52.220;20.978;2024-01-10T12:09:03;-3.50;99.90
17571;DHT22;8903;52.220;20.978;2024-01-10T12:11:40;-3.50;99.90
17571;DHT22;8903;52.220;20.978;2024-01-10T12:14:08;-3.40;99.90
17571;DHT22;8903;52.220;20.978;2024-01-10T12:16:33;-3.40;99.90
17571;DHT22;8903;52.220;20.978;2024-01-10T12:18:59;-3.40;99.90
17571;DHT22;8903;52.220;20.978;2024-01-10T12:21:25;-3.50;99.90
17571;DHT22;8903;52.220;20.978;2024-01-10T12:23:51;-3.40;99.90
17571;DHT22;8903;52.220;20.978;2024-01-10T12:26:18;-3.30;99.90
17571;DHT22;8903;52.220;20.978;2024-01-10T12:28:54;-3.30;99.90
17571;DHT22;8903;52.220;20.978;2024-01-10T12:31:21;-3.30;99.90
17571;DHT22;8903;52.220;20.978;2024-01-10T12:33:49;-3.20;99.90
17571;DHT22;8903;52.220;20.978;2024-01-10T12:36:17;-3.10;99.90
17571;DHT22;8903;52.220;20.978;2024-01-10T12:38:43;-2.90;99.90
17571;DHT22;8903;52.220;20.978;2024-01-10T12:41:10;-3.00;99.90
17571;DHT22;8903;52.220;20.978;2024-01-10T12:43:37;-3.00;99.90
17571;DHT22;8903;52.220;20.978;2024-01-10T12:46:06;-3.10;99.90
17571;DHT22;8903;52.220;20.978;2024-01-10T12:48:32;-3.10;99.90
17571;DHT22;8903;52.220;20.978;2024-01-10T12:50:59;-3.00;99.90
17571;DHT22;8903;52.220;20.978;2024-01-10T12:53:44;-2.90;99.90
17571;DHT22;8903;52.220;20.978;2024-01-10T12:56:10;-2.70;99.90
17571;DHT22;8903;52.220;20.978;2024-01-10T12:58:40;-2.50;99.90
17571;DHT22;8903;52.220;20.978;2024-01-10T13:01:10;-2.40;99.90
17571;DHT22;8903;52.220;20.978;2024-01-10T13:03:38;-2.40;99.90
17571;DHT22;8903;52.220;20.978;2024-01-10T13:06:04;-2.40;99.90
17571;DHT22;8903;52.220;20.978;2024-01-10T13:08:30;-2.50;99.90
17571;DHT22;8903;52.220;20.978;2024-01-10T13:10:58;-2.70;99.90
17571;DHT22;8903;52.220;20.978;2024-01-10T13:13:26;-2.90;99.90
17571;DHT22;8903;52.220;20.978;2024-01-10T13:15:52;-2.90;99.90
17571;DHT22;8903;52.220;20.978;2024-01-10T13:18:18;-3.00;99.90
17571;DHT22;8903;52.220;20.978;2024-01-10T13:20:44;-3.10;99.90
17571;DHT22;8903;52.220;20.978;2024-01-10T13:23:10;-3.20;99.90
17571;DHT22;8903;52.220;20.978;2024-01-10T13:25:36;-3.20;99.90
17571;DHT22;8903;52.220;20.978;2024-01-10T13:28:06;-3.20;99.90
17571;DHT22;8903;52.220;20.978;2024-01-10T13:30:31;-3.20;99.90
17571;DHT22;8903;52.220;20.978;2024-01-10T13:32:57;-3.10;99.90
17571;DHT22;8903;52.220;20.978;2024-01-10T13:35:23;-3.10;99.90
17571;DHT22;8903;52.220;20.978;2024-01-10T13:37:50;-3.10;99.90
17571;DHT22;8903;52.220;20.978;2024-01-10T13:40:15;-3.10;99.90
17571;DHT22;8903;52.220;20.978;2024-01-10T13:42:43;-3.10;99.90
17571;DHT22;8903;52.220;20.978;2024-01-10T13:45:09;-3.10;99.90
17571;DHT22;8903;52.220;20.978;2024-01-10T13:47:39;-3.10;99.90
17571;DHT22;8903;52.220;20.978;2024-01-10T13:50:05;-3.10;99.90
17571;DHT22;8903;52.220;20.978;2024-01-10T13:52:32;-3.20;99.90
17571;DHT22;8903;52.220;20.978;2024-01-10T13:54:59;-3.20;99.90
17571;DHT22;8903;52.220;20.978;2024-01-10T13:57:24;-3.20;99.90
17571;DHT22;8903;52.220;20.978;2024-01-10T13:59:50;-3.30;99.90
17571;DHT22;8903;52.220;20.978;2024-01-10T14:02:16;-3.30;99.90
17571;DHT22;8903;52.220;20.978;2024-01-10T14:04:45;-3.30;99.90
17571;DHT22;8903;52.220;20.978;2024-01-10T14:07:10;-3.40;99.90
17571;DHT22;8903;52.220;20.978;2024-01-10T14:09:36;-3.40;99.90
17571;DHT22;8903;52.220;20.978;2024-01-10T14:12:02;-3.50;99.90
17571;DHT22;8903;52.220;20.978;2024-01-10T14:14:28;-3.50;99.90
17571;DHT22;8903;52.220;20.978;2024-01-10T14:16:54;-3.60;99.90
17571;DHT22;8903;52.220;20.978;2024-01-10T14:19:21;-3.60;99.90
17571;DHT22;8903;52.220;20.978;2024-01-10T14:21:47;-3.50;99.90
17571;DHT22;8903;52.220;20.978;2024-01-10T14:24:12;-3.50;99.90
17571;DHT22;8903;52.220;20.978;2024-01-10T14:26:40;-3.50;99.90
17571;DHT22;8903;52.220;20.978;2024-01-10T14:29:05;-3.60;99.90
17571;DHT22;8903;52.220;20.978;2024-01-10T14:31:31;-3.60;99.90
17571;DHT22;8903;52.220;20.978;2024-01-10T14:33:57;-3.60;99.90
17571;DHT22;8903;52.220;20.978;2024-01-10T14:36:23;-3.60;99.90
17571;DHT22;8903;52.220;20.978;2024-01-10T14:38:48;-3.60;99.90
17571;DHT22;8903;52.220;20.978;2024-01-10T14:41:14;-3.70;99.90
17571;DHT22;8903;52.220;20.978;2024-01-10T14:43:40;-3.70;99.90
17571;DHT22;8903;52.220;20.978;2024-01-10T14:46:06;-3.70;99.90
17571;DHT22;8903;52.220;20.978;2024-01-10T14:48:32;-3.70;99.90
17571;DHT22;8903;52.220;20.978;2024-01-10T14:50:59;-3.80;99.90
17571;DHT22;8903;52.220;20.978;2024-01-10T14:53:26;-3.80;99.90
17571;DHT22;8903;52.220;20.978;2024-01-10T14:55:52;-3.80;99.90
17571;DHT22;8903;52.220;20.978;2024-01-10T14:58:18;-3.80;99.90
17571;DHT22;8903;52.220;20.978;2024-01-10T15:00:44;-3.80;99.90
17571;DHT22;8903;52.220;20.978;2024-01-10T15:03:10;-3.90;99.90
17571;DHT22;8903;52.220;20.978;2024-01-10T15:05:36;-3.90;99.90
17571;DHT22;8903;52.220;20.978;2024-01-10T15:08:02;-3.90;99.90
17571;DHT22;8903;52.220;20.978;2024-01-10T15:10:33;-4.00;99.90
17571;DHT22;8903;52.220;20.978;2024-01-10T15:12:59;-4.00;99.90
17571;DHT22;8903;52.220;20.978;2024-01-10T15:15:25;-4.00;99.90
17571;DHT22;8903;52.220;20.978;2024-01-10T15:17:51;-4.10;99.90
17571;DHT22;8903;52.220;20.978;2024-01-10T15:20:16;-4.10;99.90
17571;DHT22;8903;52.220;20.978;2024-01-10T15:22:42;-4.10;99.90
17571;DHT22;8903;52.220;20.978;2024-01-10T15:25:08;-4.20;99.90
17571;DHT22;8903;52.220;20.978;2024-01-10T15:27:34;-4.20;99.90
17571;DHT22;8903;52.220;20.978;2024-01-10T15:30:01;-4.20;99.90
17571;DHT22;8903;52.220;20.978;2024-01-10T15:32:27;-4.10;99.90
17571;DHT22;8903;52.220;20.978;2024-01-10T15:34:54;-4.20;99.90
17571;DHT22;8903;52.220;20.978;2024-01-10T15:37:20;-4.20;99.90
17571;DHT22;8903;52.220;20.978;2024-01-10T15:39:46;-4.30;99.90
17571;DHT22;8903;52.220;20.978;2024-01-10T15:42:12;-4.30;99.90
17571;DHT22;8903;52.220;20.978;2024-01-10T15:44:39;-4.40;99.90